Island Venture — WDG3765 — position and weather

sailwx.info

Track history (hours):
 
Tides and Currents Weather Stations Pressure Air Temp Water Temp Dewpoint Dewpoint Depression Visibility Wind Speed Wind Dir Waves Ship Positions

Island Venture

Owner: Island Tug and Barge, Seattle, WA. More information available from US FCC via Universal Licensing System and Coast Guard Vessel Documentation Center.

Last reported at 2018-Jul-21 17:30 UTC. Time now 2018-Jul-21 17:33 UTC.
Position N 47°34' W 122°21'.

Length 32 m.

MMSI: 367529420.

Date/timePositionNaut miles runAvg speedWind from/ knotsBaromVisibWave heightAir tempDewpointWater temp
2018-Jul-21 17:30N 47°34' W 122°21'0 0.0
2018-Jul-21 17:00N 47°34' W 122°21'0 0.0
2018-Jul-21 16:30N 47°34' W 122°21'0 0.0
2018-Jul-21 16:00N 47°34' W 122°21'0 0.0
2018-Jul-21 15:30N 47°34' W 122°21'0 0.0
2018-Jul-21 15:00N 47°34' W 122°21'0 0.0
2018-Jul-21 14:30N 47°34' W 122°21'0 0.0
2018-Jul-21 13:30N 47°34' W 122°21'0 0.0
2018-Jul-21 12:59N 47°34' W 122°21'0 0.0
2018-Jul-21 12:30N 47°34' W 122°21'0 0.0
2018-Jul-21 12:00N 47°34' W 122°21'0 0.0
2018-Jul-21 11:30N 47°34' W 122°21'0 0.0
2018-Jul-21 11:00N 47°34' W 122°21'0 0.0
2018-Jul-21 10:30N 47°34' W 122°21'0 0.0
2018-Jul-21 10:00N 47°34' W 122°21'0 0.0
2018-Jul-21 09:30N 47°34' W 122°21'0 0.0
2018-Jul-21 09:00N 47°34' W 122°21'0 0.0
2018-Jul-21 08:30N 47°34' W 122°21'0 0.0
2018-Jul-21 08:01N 47°34' W 122°21'0 0.0
2018-Jul-21 07:29N 47°34' W 122°21'0 0.0
2018-Jul-21 07:00N 47°34' W 122°21'0 0.0
2018-Jul-21 06:30N 47°34' W 122°21'4 7.0
2018-Jul-21 06:00N 47°37' W 122°24'5 9.5
2018-Jul-21 05:30N 47°42' W 122°26'510.3
2018-Jul-21 05:00N 47°47' W 122°25'510.1
2018-Jul-21 04:31N 47°52' W 122°22'510.3
2018-Jul-21 04:01N 47°57' W 122°19'5 1.6
2018-Jul-21 01:09N 47°59' W 122°13'0 0.0
2018-Jul-21 01:00N 47°59' W 122°13'0 0.0
2018-Jul-21 00:31N 47°59' W 122°13'0 0.0
2018-Jul-20 23:59N 47°59' W 122°13'0 0.0
2018-Jul-20 23:31N 47°59' W 122°13'0 0.0
2018-Jul-20 23:00N 47°59' W 122°13'0 0.0
2018-Jul-20 22:30N 47°59' W 122°13'0 0.0
2018-Jul-20 22:00N 47°59' W 122°13'0 0.0
2018-Jul-20 21:25N 47°59' W 122°13'0 0.0
2018-Jul-20 21:00N 47°59' W 122°13'0 0.0
2018-Jul-20 20:08N 47°59' W 122°13'0 0.3
2018-Jul-20 19:52N 47°59' W 122°13'0 0.0
2018-Jul-20 19:24N 47°59' W 122°13'0 0.2
2018-Jul-20 18:53N 47°59' W 122°14'0 0.0
2018-Jul-20 13:29N 47°59' W 122°13'1 2.2
2018-Jul-20 12:54N 47°59' W 122°15'1 2.8
2018-Jul-20 12:26N 47°59' W 122°17'0 0.1
2018-Jul-20 11:59N 47°58' W 122°17'0 0.2
2018-Jul-20 10:33N 47°58' W 122°18'0 0.9
2018-Jul-20 10:29N 47°58' W 122°17'0 0.5
2018-Jul-20 10:00N 47°58' W 122°18'1 1.1
2018-Jul-20 09:20N 47°58' W 122°18'1 3.3
2018-Jul-20 09:00N 47°57' W 122°20'2 3.5
2018-Jul-20 08:30N 47°55' W 122°21'2 3.7
2018-Jul-20 08:00N 47°54' W 122°22'2 3.9
2018-Jul-20 07:30N 47°52' W 122°23'3 5.6
2018-Jul-20 07:01N 47°49' W 122°24'4 7.0
2018-Jul-20 06:31N 47°46' W 122°25'3 6.9
2018-Jul-20 06:00N 47°42' W 122°26'3 6.8
2018-Jul-20 05:30N 47°39' W 122°26'4 7.4
2018-Jul-20 05:00N 47°36' W 122°23'3 5.5
2018-Jul-20 04:30N 47°34' W 122°21'2 3.3
2018-Jul-20 04:00N 47°32' W 122°20'2 4.3
2018-Jul-20 03:30N 47°34' W 122°21'0 0.5
2018-Jul-20 03:00N 47°34' W 122°21'0 0.0
2018-Jul-20 02:30N 47°34' W 122°21'1 1.5
2018-Jul-20 02:00N 47°34' W 122°21'1 1.4
2018-Jul-20 01:29N 47°34' W 122°21'2 4.5
2018-Jul-20 01:00N 47°36' W 122°24'3 6.3
2018-Jul-20 00:30N 47°33' W 122°27'3 6.9
2018-Jul-20 00:01N 47°30' W 122°29'4 7.4
2018-Jul-19 23:30N 47°27' W 122°31'4 7.3
2018-Jul-19 23:00N 47°23' W 122°32'4 7.8
2018-Jul-19 22:30N 47°19' W 122°33'4 8.3
2018-Jul-19 22:00N 47°15' W 122°34'4 7.7
2018-Jul-19 21:30N 47°12' W 122°36'6 6.3
2018-Jul-19 20:29N 47°10' W 122°45'3 0.2
2018-Jul-19 00:42N 47°07' W 122°42'2 6.4
2018-Jul-19 00:22N 47°08' W 122°40'5 6.6
2018-Jul-18 23:37N 47°13' W 122°36'1 6.6
2018-Jul-18 23:30N 47°13' W 122°35'3 6.2
2018-Jul-18 23:00N 47°16' W 122°33'2 4.8
2018-Jul-18 22:30N 47°18' W 122°33'2 4.1
2018-Jul-18 22:00N 47°20' W 122°33'3 5.6
2018-Jul-18 21:30N 47°23' W 122°32'3 5.8
2018-Jul-18 21:00N 47°26' W 122°32'3 5.9
2018-Jul-18 20:31N 47°29' W 122°30'3 6.0
2018-Jul-18 20:00N 47°32' W 122°28'3 6.5
2018-Jul-18 19:30N 47°35' W 122°26'3 5.6
2018-Jul-18 19:00N 47°36' W 122°22'2 4.1
2018-Jul-18 18:30N 47°34' W 122°21'2 3.3
2018-Jul-18 18:01N 47°35' W 122°22'1 2.2
2018-Jul-18 17:30N 47°34' W 122°21'1 2.3
2018-Jul-18 17:00N 47°33' W 122°21'1 1.8
2018-Jul-18 16:30N 47°32' W 122°20'0 0.8
2018-Jul-18 16:00N 47°33' W 122°20'1 2.9
2018-Jul-18 15:31N 47°34' W 122°21'0 0.5
2018-Jul-18 15:00N 47°34' W 122°21'1 2.9
2018-Jul-18 14:30N 47°33' W 122°20'0 0.2
2018-Jul-18 13:30N 47°33' W 122°20'2 3.5
2018-Jul-18 13:01N 47°34' W 122°21'2 4.7
2018-Jul-18 12:30N 47°36' W 122°24'3 6.0
2018-Jul-18 12:01N 47°34' W 122°27'3 6.4
2018-Jul-18 11:30N 47°31' W 122°29'7 7.3
2018-Jul-18 10:30N 47°24' W 122°32'4 7.9
2018-Jul-18 10:00N 47°20' W 122°33'4 8.7
2018-Jul-18 09:30N 47°16' W 122°33'4 8.2
2018-Jul-18 08:59N 47°12' W 122°36'3 6.9
2018-Jul-18 08:30N 47°09' W 122°39'3 6.4
2018-Jul-18 08:00N 47°07' W 122°43'6 0.3
2018-Jul-17 12:15N 47°11' W 122°50'11 5.9
2018-Jul-17 10:28N 47°13' W 122°35'3 5.7
2018-Jul-17 09:58N 47°16' W 122°33'2 4.7
2018-Jul-17 09:30N 47°18' W 122°33'2 3.9
2018-Jul-17 09:00N 47°20' W 122°33'3 5.0
2018-Jul-17 08:30N 47°22' W 122°32'3 6.0
2018-Jul-17 08:01N 47°25' W 122°32'3 5.8
2018-Jul-17 07:30N 47°28' W 122°31'3 6.0
2018-Jul-17 07:00N 47°31' W 122°29'3 6.4
2018-Jul-17 06:30N 47°34' W 122°27'3 6.8
2018-Jul-17 06:00N 47°36' W 122°23'3 5.4
2018-Jul-17 05:30N 47°34' W 122°21'1 1.4
2018-Jul-17 04:58N 47°34' W 122°21'0 0.0
2018-Jul-17 04:30N 47°34' W 122°21'0 0.0
2018-Jul-17 03:59N 47°34' W 122°21'0 0.0
2018-Jul-17 03:30N 47°34' W 122°21'0 0.0
2018-Jul-17 03:00N 47°34' W 122°21'0 0.0
2018-Jul-17 02:30N 47°34' W 122°21'0 0.1
2018-Jul-17 02:01N 47°34' W 122°21'0 0.1
2018-Jul-17 01:30N 47°34' W 122°21'1 1.1
2018-Jul-17 01:00N 47°34' W 122°21'2 3.7
2018-Jul-17 00:31N 47°36' W 122°22'2 1.9
2018-Jul-16 23:30N 47°34' W 122°21'1 1.1
2018-Jul-16 22:59N 47°34' W 122°21'2 4.0
2018-Jul-16 22:30N 47°36' W 122°23'3 5.4
2018-Jul-16 22:00N 47°34' W 122°26'3 5.6
2018-Jul-16 21:30N 47°32' W 122°28'4 7.5
2018-Jul-16 21:00N 47°29' W 122°30'4 7.2
2018-Jul-16 20:30N 47°25' W 122°32'4 8.0
2018-Jul-16 20:01N 47°21' W 122°32'5 9.3
2018-Jul-16 19:30N 47°16' W 122°33'5 8.5
2018-Jul-16 18:57N 47°12' W 122°36'3 6.3
2018-Jul-16 18:30N 47°10' W 122°39'2 3.8
2018-Jul-16 18:00N 47°08' W 122°39'1 1.2
2018-Jul-16 17:30N 47°09' W 122°38'0 0.0
2018-Jul-16 17:01N 47°09' W 122°38'0 0.1
2018-Jul-16 16:30N 47°09' W 122°38'0 0.0
2018-Jul-16 14:06N 47°09' W 122°38'0 0.2
2018-Jul-16 13:55N 47°09' W 122°38'1 1.5
2018-Jul-16 13:30N 47°08' W 122°39'1 1.2
2018-Jul-16 12:47N 47°09' W 122°39'1 2.6
2018-Jul-16 12:25N 47°10' W 122°39'0 0.6
2018-Jul-16 12:00N 47°10' W 122°39'2 3.7
2018-Jul-16 11:24N 47°12' W 122°37'2 4.8
2018-Jul-16 11:00N 47°13' W 122°35'3 5.2
2018-Jul-16 10:30N 47°16' W 122°34'3 5.4
2018-Jul-16 10:01N 47°18' W 122°33'3 6.0
2018-Jul-16 09:30N 47°21' W 122°32'3 6.5
2018-Jul-16 09:00N 47°25' W 122°32'3 6.5
2018-Jul-16 08:30N 47°28' W 122°31'3 6.1
2018-Jul-16 08:01N 47°30' W 122°29'3 6.5
2018-Jul-16 07:31N 47°33' W 122°27'4 7.2
2018-Jul-16 07:00N 47°36' W 122°23'2 3.7
2018-Jul-16 06:30N 47°35' W 122°22'1 2.1
2018-Jul-16 06:00N 47°34' W 122°21'0 0.0
2018-Jul-16 05:30N 47°34' W 122°21'0 0.0
2018-Jul-16 05:00N 47°34' W 122°21'0 0.0
2018-Jul-16 04:30N 47°34' W 122°21'0 0.0
2018-Jul-16 04:00N 47°34' W 122°21'0 0.0
2018-Jul-16 03:30N 47°34' W 122°21'0 0.0
2018-Jul-16 03:00N 47°34' W 122°21'0 0.0
2018-Jul-16 02:30N 47°34' W 122°21'1 2.2
2018-Jul-16 02:00N 47°33' W 122°20'1 2.3
2018-Jul-16 01:28N 47°34' W 122°21'1 0.8
2018-Jul-16 00:37N 47°34' W 122°22'0 0.0
2018-Jul-15 19:53N 47°34' W 122°21'0 0.0
2018-Jul-15 19:22N 47°34' W 122°21'0 0.0
2018-Jul-15 18:50N 47°34' W 122°21'0 0.4
2018-Jul-15 18:23N 47°34' W 122°22'0 1.0
2018-Jul-15 17:56N 47°34' W 122°21'0 0.8
2018-Jul-15 17:30N 47°34' W 122°21'0 0.1
2018-Jul-15 17:00N 47°34' W 122°21'0 0.0
2018-Jul-15 16:29N 47°34' W 122°21'1 1.0
2018-Jul-15 15:57N 47°34' W 122°21'0 0.0
2018-Jul-15 15:30N 47°34' W 122°21'0 0.3
2018-Jul-15 15:00N 47°34' W 122°21'0 0.1
2018-Jul-15 14:31N 47°34' W 122°21'1 1.3
2018-Jul-15 14:00N 47°34' W 122°21'0 0.0
2018-Jul-15 13:29N 47°34' W 122°21'0 0.0
2018-Jul-15 13:00N 47°34' W 122°21'0 0.0
2018-Jul-15 12:30N 47°34' W 122°21'0 0.0
2018-Jul-15 12:00N 47°34' W 122°21'0 0.0
2018-Jul-15 11:31N 47°34' W 122°21'0 0.0
2018-Jul-15 11:00N 47°34' W 122°21'0 0.0
2018-Jul-15 10:30N 47°34' W 122°21'0 0.0
2018-Jul-15 10:00N 47°34' W 122°21'0 0.0
2018-Jul-15 09:30N 47°34' W 122°21'0 0.0
2018-Jul-15 09:00N 47°34' W 122°21'0 0.0
2018-Jul-15 08:30N 47°34' W 122°21'0 0.0
2018-Jul-15 08:00N 47°34' W 122°21'0 0.0
2018-Jul-15 07:31N 47°34' W 122°21'1 1.2
2018-Jul-15 07:00N 47°35' W 122°22'2 3.7
2018-Jul-15 06:30N 47°36' W 122°23'4 7.8
2018-Jul-15 06:00N 47°40' W 122°27'2 4.0
2018-Jul-15 05:30N 47°40' W 122°24'2 3.2
2018-Jul-15 05:00N 47°39' W 122°22'3 5.0
2018-Jul-15 04:30N 47°39' W 122°18'6 3.6
2018-Jul-15 02:44N 47°45' W 122°16'0 0.0
2018-Jul-15 02:30N 47°45' W 122°16'0 0.5
2018-Jul-15 01:28N 47°45' W 122°16'3 6.1
2018-Jul-15 01:00N 47°42' W 122°15'3 5.3
2018-Jul-15 00:26N 47°39' W 122°16'2 5.0
2018-Jul-15 00:00N 47°39' W 122°19'2 4.0
2018-Jul-14 23:30N 47°39' W 122°22'1 2.4
2018-Jul-14 23:00N 47°40' W 122°24'0 0.5
2018-Jul-14 22:31N 47°40' W 122°24'1 1.2
2018-Jul-14 22:00N 47°41' W 122°25'2 4.9
2018-Jul-14 21:31N 47°39' W 122°27'3 6.7
2018-Jul-14 20:59N 47°35' W 122°27'3 6.2
2018-Jul-14 20:30N 47°32' W 122°28'4 8.5
2018-Jul-14 20:01N 47°29' W 122°31'4 8.5
2018-Jul-14 19:30N 47°24' W 122°32'5 9.9
2018-Jul-14 19:00N 47°20' W 122°33'510.2
2018-Jul-14 18:30N 47°15' W 122°34'4 8.4
2018-Jul-14 18:00N 47°11' W 122°38'3 5.5
2018-Jul-14 17:27N 47°08' W 122°39'0 0.0
2018-Jul-14 17:00N 47°08' W 122°39'0 0.0
2018-Jul-14 16:29N 47°08' W 122°39'0 0.0
2018-Jul-14 15:06N 47°08' W 122°39'0 2.8
2018-Jul-14 15:00N 47°08' W 122°39'5 7.3
2018-Jul-14 14:18N 47°13' W 122°36'6 6.9
2018-Jul-14 13:30N 47°18' W 122°33'4 7.6
2018-Jul-14 13:01N 47°22' W 122°32'4 8.3
2018-Jul-14 12:30N 47°26' W 122°31'4 8.0
2018-Jul-14 12:00N 47°30' W 122°30'4 8.4
2018-Jul-14 11:30N 47°34' W 122°26'4 7.0
2018-Jul-14 11:01N 47°35' W 122°22'2 3.6
2018-Jul-14 10:31N 47°34' W 122°21'1 1.6
2018-Jul-14 10:01N 47°34' W 122°21'2 4.5
2018-Jul-14 09:30N 47°36' W 122°24'3 6.0
2018-Jul-14 09:00N 47°33' W 122°27'3 6.5
2018-Jul-14 08:30N 47°31' W 122°29'4 7.2
2018-Jul-14 08:00N 47°27' W 122°31'3 6.9
2018-Jul-14 07:30N 47°24' W 122°32'4 7.2
2018-Jul-14 07:01N 47°20' W 122°33'4 7.9
2018-Jul-14 06:30N 47°16' W 122°33'4 8.4
2018-Jul-14 06:00N 47°13' W 122°36'3 6.5
2018-Jul-14 05:30N 47°11' W 122°40'4 0.2
2018-Jul-13 01:38N 47°14' W 122°35'2 8.3
2018-Jul-13 01:23N 47°16' W 122°34'3 8.2
2018-Jul-13 01:00N 47°19' W 122°33'4 7.8
2018-Jul-13 00:30N 47°23' W 122°32'4 7.3
2018-Jul-13 00:00N 47°26' W 122°31'4 7.4
2018-Jul-12 23:30N 47°30' W 122°30'4 8.4
2018-Jul-12 23:00N 47°33' W 122°27'4 7.3
2018-Jul-12 22:30N 47°36' W 122°23'3 5.3
2018-Jul-12 22:00N 47°34' W 122°21'1 2.1
2018-Jul-12 21:30N 47°33' W 122°20'1 2.1
2018-Jul-12 21:00N 47°34' W 122°21'0 0.0
2018-Jul-12 20:21N 47°34' W 122°21'0 0.0
2018-Jul-12 19:47N 47°34' W 122°21'0 0.0
2018-Jul-12 19:30N 47°34' W 122°21'0 0.0
2018-Jul-12 19:00N 47°34' W 122°21'0 0.0
2018-Jul-12 18:30N 47°34' W 122°21'0 0.0
2018-Jul-12 18:00N 47°34' W 122°21'0 0.1
2018-Jul-12 17:30N 47°34' W 122°21'1 1.4
2018-Jul-12 17:00N 47°34' W 122°21'1 1.8
2018-Jul-12 16:30N 47°35' W 122°22'2 3.2
2018-Jul-12 16:00N 47°34' W 122°21'0 0.1
2018-Jul-12 15:30N 47°34' W 122°21'0 0.9
2018-Jul-12 15:00N 47°33' W 122°21'0 0.3
2018-Jul-12 14:30N 47°33' W 122°21'1 1.1
2018-Jul-12 13:58N 47°34' W 122°21'1 1.9
2018-Jul-12 13:30N 47°34' W 122°22'0 0.3
2018-Jul-12 13:00N 47°34' W 122°21'0 0.0
2018-Jul-12 12:30N 47°34' W 122°21'0 0.0
2018-Jul-12 12:00N 47°34' W 122°21'0 0.0
2018-Jul-12 11:30N 47°34' W 122°21'0 0.0
2018-Jul-12 11:00N 47°34' W 122°21'0 0.0
2018-Jul-12 10:30N 47°34' W 122°21'0 0.0
2018-Jul-12 10:00N 47°34' W 122°21'2 3.0
2018-Jul-12 09:30N 47°33' W 122°20'0 0.5
2018-Jul-12 09:00N 47°33' W 122°20'2 3.9
2018-Jul-12 08:30N 47°35' W 122°22'2 4.3
2018-Jul-12 08:00N 47°36' W 122°24'3 5.7
2018-Jul-12 07:30N 47°34' W 122°26'3 5.6
2018-Jul-12 07:00N 47°31' W 122°29'3 6.7
2018-Jul-12 06:30N 47°28' W 122°31'3 6.5
2018-Jul-12 06:00N 47°25' W 122°32'3 6.5
2018-Jul-12 05:30N 47°22' W 122°32'4 6.9
2018-Jul-12 04:59N 47°18' W 122°33'4 7.5
2018-Jul-12 04:30N 47°15' W 122°34'4 7.2
2018-Jul-12 04:00N 47°12' W 122°38'6 6.2
2018-Jul-12 03:07N 47°10' W 122°45'  
Track history (hours):
 
Tides and Currents Weather Stations Pressure Air Temp Water Temp Dewpoint Dewpoint Depression Visibility Wind Speed Wind Dir Waves Ship Positions

Island Venture

Owner: Island Tug and Barge, Seattle, WA. More information available from US FCC via Universal Licensing System and Coast Guard Vessel Documentation Center.

Last reported at 2018-Jul-21 17:30 UTC. Time now 2018-Jul-21 17:33 UTC.
Position N 47°34' W 122°21'.

Length 32 m.

MMSI: 367529420.

Date/timePositionNaut miles runAvg speedWind from/ knotsBaromVisibWave heightAir tempDewpointWater temp
2018-Jul-21 17:30N 47°34' W 122°21'0 0.0
2018-Jul-21 17:00N 47°34' W 122°21'0 0.0
2018-Jul-21 16:30N 47°34' W 122°21'0 0.0
2018-Jul-21 16:00N 47°34' W 122°21'0 0.0
2018-Jul-21 15:30N 47°34' W 122°21'0 0.0
2018-Jul-21 15:00N 47°34' W 122°21'0 0.0
2018-Jul-21 14:30N 47°34' W 122°21'0 0.0
2018-Jul-21 13:30N 47°34' W 122°21'0 0.0
2018-Jul-21 12:59N 47°34' W 122°21'0 0.0
2018-Jul-21 12:30N 47°34' W 122°21'0 0.0
2018-Jul-21 12:00N 47°34' W 122°21'0 0.0
2018-Jul-21 11:30N 47°34' W 122°21'0 0.0
2018-Jul-21 11:00N 47°34' W 122°21'0 0.0
2018-Jul-21 10:30N 47°34' W 122°21'0 0.0
2018-Jul-21 10:00N 47°34' W 122°21'0 0.0
2018-Jul-21 09:30N 47°34' W 122°21'0 0.0
2018-Jul-21 09:00N 47°34' W 122°21'0 0.0
2018-Jul-21 08:30N 47°34' W 122°21'0 0.0
2018-Jul-21 08:01N 47°34' W 122°21'0 0.0
2018-Jul-21 07:29N 47°34' W 122°21'0 0.0
2018-Jul-21 07:00N 47°34' W 122°21'0 0.0
2018-Jul-21 06:30N 47°34' W 122°21'4 7.0
2018-Jul-21 06:00N 47°37' W 122°24'5 9.5
2018-Jul-21 05:30N 47°42' W 122°26'510.3
2018-Jul-21 05:00N 47°47' W 122°25'510.1
2018-Jul-21 04:31N 47°52' W 122°22'510.3
2018-Jul-21 04:01N 47°57' W 122°19'5 1.6
2018-Jul-21 01:09N 47°59' W 122°13'0 0.0
2018-Jul-21 01:00N 47°59' W 122°13'0 0.0
2018-Jul-21 00:31N 47°59' W 122°13'0 0.0
2018-Jul-20 23:59N 47°59' W 122°13'0 0.0
2018-Jul-20 23:31N 47°59' W 122°13'0 0.0
2018-Jul-20 23:00N 47°59' W 122°13'0 0.0
2018-Jul-20 22:30N 47°59' W 122°13'0 0.0
2018-Jul-20 22:00N 47°59' W 122°13'0 0.0
2018-Jul-20 21:25N 47°59' W 122°13'0 0.0
2018-Jul-20 21:00N 47°59' W 122°13'0 0.0
2018-Jul-20 20:08N 47°59' W 122°13'0 0.3
2018-Jul-20 19:52N 47°59' W 122°13'0 0.0
2018-Jul-20 19:24N 47°59' W 122°13'0 0.2
2018-Jul-20 18:53N 47°59' W 122°14'0 0.0
2018-Jul-20 13:29N 47°59' W 122°13'1 2.2
2018-Jul-20 12:54N 47°59' W 122°15'1 2.8
2018-Jul-20 12:26N 47°59' W 122°17'0 0.1
2018-Jul-20 11:59N 47°58' W 122°17'0 0.2
2018-Jul-20 10:33N 47°58' W 122°18'0 0.9
2018-Jul-20 10:29N 47°58' W 122°17'0 0.5
2018-Jul-20 10:00N 47°58' W 122°18'1 1.1
2018-Jul-20 09:20N 47°58' W 122°18'1 3.3
2018-Jul-20 09:00N 47°57' W 122°20'2 3.5
2018-Jul-20 08:30N 47°55' W 122°21'2 3.7
2018-Jul-20 08:00N 47°54' W 122°22'2 3.9
2018-Jul-20 07:30N 47°52' W 122°23'3 5.6
2018-Jul-20 07:01N 47°49' W 122°24'4 7.0
2018-Jul-20 06:31N 47°46' W 122°25'3 6.9
2018-Jul-20 06:00N 47°42' W 122°26'3 6.8
2018-Jul-20 05:30N 47°39' W 122°26'4 7.4
2018-Jul-20 05:00N 47°36' W 122°23'3 5.5
2018-Jul-20 04:30N 47°34' W 122°21'2 3.3
2018-Jul-20 04:00N 47°32' W 122°20'2 4.3
2018-Jul-20 03:30N 47°34' W 122°21'0 0.5
2018-Jul-20 03:00N 47°34' W 122°21'0 0.0
2018-Jul-20 02:30N 47°34' W 122°21'1 1.5
2018-Jul-20 02:00N 47°34' W 122°21'1 1.4
2018-Jul-20 01:29N 47°34' W 122°21'2 4.5
2018-Jul-20 01:00N 47°36' W 122°24'3 6.3
2018-Jul-20 00:30N 47°33' W 122°27'3 6.9
2018-Jul-20 00:01N 47°30' W 122°29'4 7.4
2018-Jul-19 23:30N 47°27' W 122°31'4 7.3
2018-Jul-19 23:00N 47°23' W 122°32'4 7.8
2018-Jul-19 22:30N 47°19' W 122°33'4 8.3
2018-Jul-19 22:00N 47°15' W 122°34'4 7.7
2018-Jul-19 21:30N 47°12' W 122°36'6 6.3
2018-Jul-19 20:29N 47°10' W 122°45'3 0.2
2018-Jul-19 00:42N 47°07' W 122°42'2 6.4
2018-Jul-19 00:22N 47°08' W 122°40'5 6.6
2018-Jul-18 23:37N 47°13' W 122°36'1 6.6
2018-Jul-18 23:30N 47°13' W 122°35'3 6.2
2018-Jul-18 23:00N 47°16' W 122°33'2 4.8
2018-Jul-18 22:30N 47°18' W 122°33'2 4.1
2018-Jul-18 22:00N 47°20' W 122°33'3 5.6
2018-Jul-18 21:30N 47°23' W 122°32'3 5.8
2018-Jul-18 21:00N 47°26' W 122°32'3 5.9
2018-Jul-18 20:31N 47°29' W 122°30'3 6.0
2018-Jul-18 20:00N 47°32' W 122°28'3 6.5
2018-Jul-18 19:30N 47°35' W 122°26'3 5.6
2018-Jul-18 19:00N 47°36' W 122°22'2 4.1
2018-Jul-18 18:30N 47°34' W 122°21'2 3.3
2018-Jul-18 18:01N 47°35' W 122°22'1 2.2
2018-Jul-18 17:30N 47°34' W 122°21'1 2.3
2018-Jul-18 17:00N 47°33' W 122°21'1 1.8
2018-Jul-18 16:30N 47°32' W 122°20'0 0.8
2018-Jul-18 16:00N 47°33' W 122°20'1 2.9
2018-Jul-18 15:31N 47°34' W 122°21'0 0.5
2018-Jul-18 15:00N 47°34' W 122°21'1 2.9
2018-Jul-18 14:30N 47°33' W 122°20'0 0.2
2018-Jul-18 13:30N 47°33' W 122°20'2 3.5
2018-Jul-18 13:01N 47°34' W 122°21'2 4.7
2018-Jul-18 12:30N 47°36' W 122°24'3 6.0
2018-Jul-18 12:01N 47°34' W 122°27'3 6.4
2018-Jul-18 11:30N 47°31' W 122°29'7 7.3
2018-Jul-18 10:30N 47°24' W 122°32'4 7.9
2018-Jul-18 10:00N 47°20' W 122°33'4 8.7
2018-Jul-18 09:30N 47°16' W 122°33'4 8.2
2018-Jul-18 08:59N 47°12' W 122°36'3 6.9
2018-Jul-18 08:30N 47°09' W 122°39'3 6.4
2018-Jul-18 08:00N 47°07' W 122°43'6 0.3
2018-Jul-17 12:15N 47°11' W 122°50'11 5.9
2018-Jul-17 10:28N 47°13' W 122°35'3 5.7
2018-Jul-17 09:58N 47°16' W 122°33'2 4.7
2018-Jul-17 09:30N 47°18' W 122°33'2 3.9
2018-Jul-17 09:00N 47°20' W 122°33'3 5.0
2018-Jul-17 08:30N 47°22' W 122°32'3 6.0
2018-Jul-17 08:01N 47°25' W 122°32'3 5.8
2018-Jul-17 07:30N 47°28' W 122°31'3 6.0
2018-Jul-17 07:00N 47°31' W 122°29'3 6.4
2018-Jul-17 06:30N 47°34' W 122°27'3 6.8
2018-Jul-17 06:00N 47°36' W 122°23'3 5.4
2018-Jul-17 05:30N 47°34' W 122°21'1 1.4
2018-Jul-17 04:58N 47°34' W 122°21'0 0.0
2018-Jul-17 04:30N 47°34' W 122°21'0 0.0
2018-Jul-17 03:59N 47°34' W 122°21'0 0.0
2018-Jul-17 03:30N 47°34' W 122°21'0 0.0
2018-Jul-17 03:00N 47°34' W 122°21'0 0.0
2018-Jul-17 02:30N 47°34' W 122°21'0 0.1
2018-Jul-17 02:01N 47°34' W 122°21'0 0.1
2018-Jul-17 01:30N 47°34' W 122°21'1 1.1
2018-Jul-17 01:00N 47°34' W 122°21'2 3.7
2018-Jul-17 00:31N 47°36' W 122°22'2 1.9
2018-Jul-16 23:30N 47°34' W 122°21'1 1.1
2018-Jul-16 22:59N 47°34' W 122°21'2 4.0
2018-Jul-16 22:30N 47°36' W 122°23'3 5.4
2018-Jul-16 22:00N 47°34' W 122°26'3 5.6
2018-Jul-16 21:30N 47°32' W 122°28'4 7.5
2018-Jul-16 21:00N 47°29' W 122°30'4 7.2
2018-Jul-16 20:30N 47°25' W 122°32'4 8.0
2018-Jul-16 20:01N 47°21' W 122°32'5 9.3
2018-Jul-16 19:30N 47°16' W 122°33'5 8.5
2018-Jul-16 18:57N 47°12' W 122°36'3 6.3
2018-Jul-16 18:30N 47°10' W 122°39'2 3.8
2018-Jul-16 18:00N 47°08' W 122°39'1 1.2
2018-Jul-16 17:30N 47°09' W 122°38'0 0.0
2018-Jul-16 17:01N 47°09' W 122°38'0 0.1
2018-Jul-16 16:30N 47°09' W 122°38'0 0.0
2018-Jul-16 14:06N 47°09' W 122°38'0 0.2
2018-Jul-16 13:55N 47°09' W 122°38'1 1.5
2018-Jul-16 13:30N 47°08' W 122°39'1 1.2
2018-Jul-16 12:47N 47°09' W 122°39'1 2.6
2018-Jul-16 12:25N 47°10' W 122°39'0 0.6
2018-Jul-16 12:00N 47°10' W 122°39'2 3.7
2018-Jul-16 11:24N 47°12' W 122°37'2 4.8
2018-Jul-16 11:00N 47°13' W 122°35'3 5.2
2018-Jul-16 10:30N 47°16' W 122°34'3 5.4
2018-Jul-16 10:01N 47°18' W 122°33'3 6.0
2018-Jul-16 09:30N 47°21' W 122°32'3 6.5
2018-Jul-16 09:00N 47°25' W 122°32'3 6.5
2018-Jul-16 08:30N 47°28' W 122°31'3 6.1
2018-Jul-16 08:01N 47°30' W 122°29'3 6.5
2018-Jul-16 07:31N 47°33' W 122°27'4 7.2
2018-Jul-16 07:00N 47°36' W 122°23'2 3.7
2018-Jul-16 06:30N 47°35' W 122°22'1 2.1
2018-Jul-16 06:00N 47°34' W 122°21'0 0.0
2018-Jul-16 05:30N 47°34' W 122°21'0 0.0
2018-Jul-16 05:00N 47°34' W 122°21'0 0.0
2018-Jul-16 04:30N 47°34' W 122°21'0 0.0
2018-Jul-16 04:00N 47°34' W 122°21'0 0.0
2018-Jul-16 03:30N 47°34' W 122°21'0 0.0
2018-Jul-16 03:00N 47°34' W 122°21'0 0.0
2018-Jul-16 02:30N 47°34' W 122°21'1 2.2
2018-Jul-16 02:00N 47°33' W 122°20'1 2.3
2018-Jul-16 01:28N 47°34' W 122°21'1 0.8
2018-Jul-16 00:37N 47°34' W 122°22'0 0.0
2018-Jul-15 19:53N 47°34' W 122°21'0 0.0
2018-Jul-15 19:22N 47°34' W 122°21'0 0.0
2018-Jul-15 18:50N 47°34' W 122°21'0 0.4
2018-Jul-15 18:23N 47°34' W 122°22'0 1.0
2018-Jul-15 17:56N 47°34' W 122°21'0 0.8
2018-Jul-15 17:30N 47°34' W 122°21'0 0.1
2018-Jul-15 17:00N 47°34' W 122°21'0 0.0
2018-Jul-15 16:29N 47°34' W 122°21'1 1.0
2018-Jul-15 15:57N 47°34' W 122°21'0 0.0
2018-Jul-15 15:30N 47°34' W 122°21'0 0.3
2018-Jul-15 15:00N 47°34' W 122°21'0 0.1
2018-Jul-15 14:31N 47°34' W 122°21'1 1.3
2018-Jul-15 14:00N 47°34' W 122°21'0 0.0
2018-Jul-15 13:29N 47°34' W 122°21'0 0.0
2018-Jul-15 13:00N 47°34' W 122°21'0 0.0
2018-Jul-15 12:30N 47°34' W 122°21'0 0.0
2018-Jul-15 12:00N 47°34' W 122°21'0 0.0
2018-Jul-15 11:31N 47°34' W 122°21'0 0.0
2018-Jul-15 11:00N 47°34' W 122°21'0 0.0
2018-Jul-15 10:30N 47°34' W 122°21'0 0.0
2018-Jul-15 10:00N 47°34' W 122°21'0 0.0
2018-Jul-15 09:30N 47°34' W 122°21'0 0.0
2018-Jul-15 09:00N 47°34' W 122°21'0 0.0
2018-Jul-15 08:30N 47°34' W 122°21'0 0.0
2018-Jul-15 08:00N 47°34' W 122°21'0 0.0
2018-Jul-15 07:31N 47°34' W 122°21'1 1.2
2018-Jul-15 07:00N 47°35' W 122°22'2 3.7
2018-Jul-15 06:30N 47°36' W 122°23'4 7.8
2018-Jul-15 06:00N 47°40' W 122°27'2 4.0
2018-Jul-15 05:30N 47°40' W 122°24'2 3.2
2018-Jul-15 05:00N 47°39' W 122°22'3 5.0
2018-Jul-15 04:30N 47°39' W 122°18'6 3.6
2018-Jul-15 02:44N 47°45' W 122°16'0 0.0
2018-Jul-15 02:30N 47°45' W 122°16'0 0.5
2018-Jul-15 01:28N 47°45' W 122°16'3 6.1
2018-Jul-15 01:00N 47°42' W 122°15'3 5.3
2018-Jul-15 00:26N 47°39' W 122°16'2 5.0
2018-Jul-15 00:00N 47°39' W 122°19'2 4.0
2018-Jul-14 23:30N 47°39' W 122°22'1 2.4
2018-Jul-14 23:00N 47°40' W 122°24'0 0.5
2018-Jul-14 22:31N 47°40' W 122°24'1 1.2
2018-Jul-14 22:00N 47°41' W 122°25'2 4.9
2018-Jul-14 21:31N 47°39' W 122°27'3 6.7
2018-Jul-14 20:59N 47°35' W 122°27'3 6.2
2018-Jul-14 20:30N 47°32' W 122°28'4 8.5
2018-Jul-14 20:01N 47°29' W 122°31'4 8.5
2018-Jul-14 19:30N 47°24' W 122°32'5 9.9
2018-Jul-14 19:00N 47°20' W 122°33'510.2
2018-Jul-14 18:30N 47°15' W 122°34'4 8.4
2018-Jul-14 18:00N 47°11' W 122°38'3 5.5
2018-Jul-14 17:27N 47°08' W 122°39'0 0.0
2018-Jul-14 17:00N 47°08' W 122°39'0 0.0
2018-Jul-14 16:29N 47°08' W 122°39'0 0.0
2018-Jul-14 15:06N 47°08' W 122°39'0 2.8
2018-Jul-14 15:00N 47°08' W 122°39'5 7.3
2018-Jul-14 14:18N 47°13' W 122°36'6 6.9
2018-Jul-14 13:30N 47°18' W 122°33'4 7.6
2018-Jul-14 13:01N 47°22' W 122°32'4 8.3
2018-Jul-14 12:30N 47°26' W 122°31'4 8.0
2018-Jul-14 12:00N 47°30' W 122°30'4 8.4
2018-Jul-14 11:30N 47°34' W 122°26'4 7.0
2018-Jul-14 11:01N 47°35' W 122°22'2 3.6
2018-Jul-14 10:31N 47°34' W 122°21'1 1.6
2018-Jul-14 10:01N 47°34' W 122°21'2 4.5
2018-Jul-14 09:30N 47°36' W 122°24'3 6.0
2018-Jul-14 09:00N 47°33' W 122°27'3 6.5
2018-Jul-14 08:30N 47°31' W 122°29'4 7.2
2018-Jul-14 08:00N 47°27' W 122°31'3 6.9
2018-Jul-14 07:30N 47°24' W 122°32'4 7.2
2018-Jul-14 07:01N 47°20' W 122°33'4 7.9
2018-Jul-14 06:30N 47°16' W 122°33'4 8.4
2018-Jul-14 06:00N 47°13' W 122°36'3 6.5
2018-Jul-14 05:30N 47°11' W 122°40'4 0.2
2018-Jul-13 01:38N 47°14' W 122°35'2 8.3
2018-Jul-13 01:23N 47°16' W 122°34'3 8.2
2018-Jul-13 01:00N 47°19' W 122°33'4 7.8
2018-Jul-13 00:30N 47°23' W 122°32'4 7.3
2018-Jul-13 00:00N 47°26' W 122°31'4 7.4
2018-Jul-12 23:30N 47°30' W 122°30'4 8.4
2018-Jul-12 23:00N 47°33' W 122°27'4 7.3
2018-Jul-12 22:30N 47°36' W 122°23'3 5.3
2018-Jul-12 22:00N 47°34' W 122°21'1 2.1
2018-Jul-12 21:30N 47°33' W 122°20'1 2.1
2018-Jul-12 21:00N 47°34' W 122°21'0 0.0
2018-Jul-12 20:21N 47°34' W 122°21'0 0.0
2018-Jul-12 19:47N 47°34' W 122°21'0 0.0
2018-Jul-12 19:30N 47°34' W 122°21'0 0.0
2018-Jul-12 19:00N 47°34' W 122°21'0 0.0
2018-Jul-12 18:30N 47°34' W 122°21'0 0.0
2018-Jul-12 18:00N 47°34' W 122°21'0 0.1
2018-Jul-12 17:30N 47°34' W 122°21'1 1.4
2018-Jul-12 17:00N 47°34' W 122°21'1 1.8
2018-Jul-12 16:30N 47°35' W 122°22'2 3.2
2018-Jul-12 16:00N 47°34' W 122°21'0 0.1
2018-Jul-12 15:30N 47°34' W 122°21'0 0.9
2018-Jul-12 15:00N 47°33' W 122°21'0 0.3
2018-Jul-12 14:30N 47°33' W 122°21'1 1.1
2018-Jul-12 13:58N 47°34' W 122°21'1 1.9
2018-Jul-12 13:30N 47°34' W 122°22'0 0.3
2018-Jul-12 13:00N 47°34' W 122°21'0 0.0
2018-Jul-12 12:30N 47°34' W 122°21'0 0.0
2018-Jul-12 12:00N 47°34' W 122°21'0 0.0
2018-Jul-12 11:30N 47°34' W 122°21'0 0.0
2018-Jul-12 11:00N 47°34' W 122°21'0 0.0
2018-Jul-12 10:30N 47°34' W 122°21'0 0.0
2018-Jul-12 10:00N 47°34' W 122°21'2 3.0
2018-Jul-12 09:30N 47°33' W 122°20'0 0.5
2018-Jul-12 09:00N 47°33' W 122°20'2 3.9
2018-Jul-12 08:30N 47°35' W 122°22'2 4.3
2018-Jul-12 08:00N 47°36' W 122°24'3 5.7
2018-Jul-12 07:30N 47°34' W 122°26'3 5.6
2018-Jul-12 07:00N 47°31' W 122°29'3 6.7
2018-Jul-12 06:30N 47°28' W 122°31'3 6.5
2018-Jul-12 06:00N 47°25' W 122°32'3 6.5
2018-Jul-12 05:30N 47°22' W 122°32'4 6.9
2018-Jul-12 04:59N 47°18' W 122°33'4 7.5
2018-Jul-12 04:30N 47°15' W 122°34'4 7.2
2018-Jul-12 04:00N 47°12' W 122°38'6 6.2
2018-Jul-12 03:07N 47°10' W 122°45'  

Dump ship's entire track history